createdAt,value
2023-04-23T00:00:35.343Z,13.11
2023-04-23T00:03:38.170Z,13.12
2023-04-23T00:06:43.069Z,13.09
2023-04-23T00:09:45.108Z,13.03
2023-04-23T00:12:47.025Z,12.96
2023-04-23T00:15:48.938Z,12.90
2023-04-23T00:18:51.132Z,12.80
2023-04-23T00:21:54.601Z,12.72
2023-04-23T00:24:56.413Z,12.70
2023-04-23T00:27:58.125Z,12.61
2023-04-23T00:30:59.837Z,12.51
2023-04-23T00:34:01.577Z,12.45
2023-04-23T00:37:06.947Z,12.37
2023-04-23T00:40:09.074Z,12.29
2023-04-23T00:43:11.666Z,12.24
2023-04-23T00:46:13.918Z,12.21
2023-04-23T00:49:16.002Z,12.15
2023-04-23T00:52:19.023Z,12.11
2023-04-23T00:55:21.359Z,12.12
2023-04-23T00:58:23.287Z,12.09
2023-04-23T01:01:26.104Z,11.99
2023-04-23T01:04:29.569Z,11.96
2023-04-23T01:07:34.401Z,11.89
2023-04-23T01:10:36.224Z,11.87
2023-04-23T01:13:38.131Z,11.80
2023-04-23T01:16:39.800Z,11.77
2023-04-23T01:19:41.965Z,11.71
2023-04-23T01:22:46.003Z,11.68
2023-04-23T01:25:47.840Z,11.66
2023-04-23T01:28:50.005Z,11.58
2023-04-23T01:31:51.675Z,11.58
2023-04-23T01:34:54.653Z,11.53
2023-04-23T01:37:59.172Z,11.50
2023-04-23T01:41:01.020Z,11.46
2023-04-23T01:44:02.909Z,11.46
2023-04-23T01:47:06.982Z,11.42
2023-04-23T01:50:09.484Z,11.40
2023-04-23T01:53:12.755Z,11.32
2023-04-23T01:56:15.813Z,11.30
2023-04-23T01:59:17.451Z,11.33
2023-04-23T02:02:19.835Z,11.32
2023-04-23T02:05:21.825Z,11.26
2023-04-23T02:08:24.961Z,11.28
2023-04-23T02:11:29.499Z,11.29
2023-04-23T02:14:31.497Z,11.27
2023-04-23T02:17:33.214Z,11.19
2023-04-23T02:20:38.817Z,11.08
2023-04-23T02:23:42.335Z,11.01
2023-04-23T02:26:44.097Z,10.95
2023-04-23T02:29:45.974Z,10.88
2023-04-23T02:32:47.706Z,10.85
2023-04-23T02:35:49.279Z,10.76
2023-04-23T02:38:53.110Z,10.73
2023-04-23T02:41:54.800Z,10.70
2023-04-23T02:44:56.992Z,10.67
2023-04-23T02:47:58.624Z,10.55
2023-04-23T02:51:00.507Z,10.50
2023-04-23T02:54:04.161Z,10.45
2023-04-23T02:57:06.275Z,10.42
2023-04-23T03:00:09.152Z,10.39
2023-04-23T03:03:16.129Z,10.42
2023-04-23T03:06:18.083Z,10.38
2023-04-23T03:09:21.386Z,10.37
2023-04-23T03:12:23.287Z,10.38
2023-04-23T03:15:25.689Z,10.36
2023-04-23T03:18:27.397Z,10.36
2023-04-23T03:21:30.243Z,10.38
2023-04-23T03:24:33.663Z,10.31
2023-04-23T03:27:35.470Z,10.27
2023-04-23T03:30:37.269Z,10.23
2023-04-23T03:33:39.160Z,10.29
2023-04-23T03:36:41.092Z,10.18
2023-04-23T03:39:44.404Z,10.11
2023-04-23T03:42:46.977Z,10.14
2023-04-23T03:45:50.832Z,10.11
2023-04-23T03:48:53.215Z,10.06
2023-04-23T03:52:00.925Z,10.04
2023-04-23T03:55:07.340Z,10.03
2023-04-23T03:58:15.452Z,10.01
2023-04-23T04:01:19.797Z,10.00
2023-04-23T04:04:21.809Z,9.96
2023-04-23T04:07:24.979Z,9.92
2023-04-23T04:10:28.162Z,9.92
2023-04-23T04:13:29.823Z,9.89
2023-04-23T04:16:31.531Z,9.87
2023-04-23T04:19:33.261Z,9.84
2023-04-23T04:22:35.849Z,9.76
2023-04-23T04:25:41.796Z,9.76
2023-04-23T04:28:45.475Z,9.73
2023-04-23T04:31:47.284Z,9.70
2023-04-23T04:34:50.093Z,9.71
2023-04-23T04:37:54.373Z,9.69
2023-04-23T04:41:00.320Z,9.64
2023-04-23T04:44:02.135Z,9.61
2023-04-23T04:47:04.079Z,9.63
2023-04-23T04:50:06.830Z,9.61
2023-04-23T04:53:08.447Z,9.59
2023-04-23T04:56:11.438Z,9.56
2023-04-23T04:59:13.101Z,9.50
2023-04-23T05:02:14.824Z,9.46
2023-04-23T05:05:17.741Z,9.42
2023-04-23T05:08:21.840Z,9.42
2023-04-23T05:11:24.835Z,9.40
2023-04-23T05:14:26.813Z,9.37
2023-04-23T05:17:28.436Z,9.33
2023-04-23T05:20:30.520Z,9.31
2023-04-23T05:23:32.250Z,9.31
2023-04-23T05:26:35.423Z,9.34
2023-04-23T05:29:37.209Z,9.34
2023-04-23T05:32:39.321Z,9.34
2023-04-23T05:35:41.168Z,9.38
2023-04-23T05:38:43.305Z,9.38
2023-04-23T05:41:46.516Z,9.36
2023-04-23T05:44:48.216Z,9.34
2023-04-23T05:47:49.896Z,9.41
2023-04-23T05:50:53.798Z,9.45
2023-04-23T05:53:55.503Z,9.46
2023-04-23T05:56:59.083Z,9.47
2023-04-23T06:00:00.851Z,9.51
2023-04-23T06:03:02.686Z,9.53
2023-04-23T06:06:04.411Z,9.56
2023-04-23T06:09:06.942Z,9.69
2023-04-23T06:12:09.928Z,9.79
2023-04-23T06:15:11.817Z,9.81
2023-04-23T06:18:13.381Z,9.94
2023-04-23T06:21:15.204Z,9.97
2023-04-23T06:24:16.994Z,10.05
2023-04-23T06:27:20.107Z,10.14
2023-04-23T06:30:25.032Z,10.30
2023-04-23T06:33:27.763Z,10.43
2023-04-23T06:36:29.946Z,10.41
2023-04-23T06:39:31.574Z,10.42
2023-04-23T06:42:34.743Z,10.46
2023-04-23T06:45:56.883Z,10.66
2023-04-23T06:48:58.492Z,10.68
2023-04-23T06:52:00.239Z,10.67
2023-04-23T06:55:01.944Z,10.68
2023-04-23T06:58:10.055Z,10.82
2023-04-23T07:01:12.329Z,11.03
2023-04-23T07:04:14.108Z,11.15
2023-04-23T07:07:16.273Z,11.23
2023-04-23T07:10:18.324Z,11.24
2023-04-23T07:13:21.370Z,11.20
2023-04-23T07:16:24.278Z,11.38
2023-04-23T07:19:26.163Z,11.49
2023-04-23T07:22:30.444Z,11.53
2023-04-23T07:25:32.624Z,11.61
2023-04-23T07:28:35.698Z,11.74
2023-04-23T07:31:37.675Z,11.80
2023-04-23T07:34:39.932Z,11.87
2023-04-23T07:37:41.909Z,12.01
2023-04-23T07:40:43.549Z,12.20
2023-04-23T07:43:46.688Z,12.16
2023-04-23T07:46:48.699Z,12.22
2023-04-23T07:49:50.612Z,12.27
2023-04-23T07:52:53.067Z,12.44
2023-04-23T07:55:55.792Z,12.52
2023-04-23T07:58:58.785Z,12.62
2023-04-23T08:02:00.393Z,12.70
2023-04-23T08:05:02.300Z,12.79
2023-04-23T08:08:04.125Z,13.00
2023-04-23T08:11:05.796Z,13.09
2023-04-23T08:14:09.063Z,13.13
2023-04-23T08:17:10.645Z,13.04
2023-04-23T08:20:12.438Z,13.13
2023-04-23T08:23:14.170Z,13.25
2023-04-23T08:26:15.792Z,13.33
2023-04-23T08:29:18.803Z,13.44
2023-04-23T08:32:20.773Z,13.43
2023-04-23T08:35:23.259Z,13.63
2023-04-23T08:38:24.923Z,13.79
2023-04-23T08:41:34.143Z,13.93
2023-04-23T08:44:38.165Z,13.97
2023-04-23T08:47:42.962Z,14.00
2023-04-23T08:50:45.038Z,14.12
2023-04-23T08:53:50.738Z,14.20
2023-04-23T08:56:52.572Z,14.30
2023-04-23T08:59:55.563Z,14.52
2023-04-23T09:02:57.557Z,14.50
2023-04-23T09:05:59.354Z,14.59
2023-04-23T09:09:01.164Z,14.48
2023-04-23T09:12:02.830Z,14.52
2023-04-23T09:15:10.940Z,14.55
2023-04-23T09:18:12.554Z,14.60
2023-04-23T09:21:14.676Z,14.57
2023-04-23T09:24:18.003Z,14.66
2023-04-23T09:27:23.498Z,14.56
2023-04-23T09:30:27.526Z,14.83
2023-04-23T09:33:29.324Z,14.99
2023-04-23T09:36:32.313Z,15.10
2023-04-23T09:39:34.720Z,15.19
2023-04-23T09:42:37.147Z,15.15
2023-04-23T09:45:49.370Z,15.47
2023-04-23T09:48:52.848Z,15.54
2023-04-23T09:51:54.648Z,15.10
2023-04-23T09:54:56.701Z,14.78
2023-04-23T09:57:59.155Z,14.76
2023-04-23T10:01:08.264Z,14.98
2023-04-23T10:04:16.232Z,14.94
2023-04-23T10:07:20.393Z,15.30
2023-04-23T10:10:22.688Z,15.94
2023-04-23T10:13:24.565Z,16.02
2023-04-23T10:16:32.977Z,16.02
2023-04-23T10:19:45.090Z,15.79
2023-04-23T10:22:47.597Z,16.04
2023-04-23T10:25:50.340Z,15.87
2023-04-23T10:28:54.250Z,15.92
2023-04-23T10:31:58.603Z,15.67
2023-04-23T10:35:00.515Z,15.27
2023-04-23T10:38:03.125Z,15.37
2023-04-23T10:41:05.858Z,15.58
2023-04-23T10:44:12.150Z,15.55
2023-04-23T10:47:16.318Z,15.53
2023-04-23T10:50:19.041Z,15.48
2023-04-23T10:53:23.938Z,15.47
2023-04-23T10:56:27.838Z,15.71
2023-04-23T10:59:30.567Z,15.67
2023-04-23T11:02:47.189Z,15.81
2023-04-23T11:05:48.933Z,15.82
2023-04-23T11:08:54.525Z,15.83
2023-04-23T11:11:58.154Z,15.86
2023-04-23T11:15:00.175Z,15.85
2023-04-23T11:18:03.565Z,16.19
2023-04-23T11:21:05.485Z,16.30
2023-04-23T11:24:07.571Z,16.08
2023-04-23T11:27:11.874Z,15.94
2023-04-23T11:30:14.672Z,15.81
2023-04-23T11:33:17.965Z,16.22
2023-04-23T11:36:19.771Z,16.47
2023-04-23T11:39:21.805Z,16.94
2023-04-23T11:42:23.462Z,16.95
2023-04-23T11:45:25.832Z,16.95
2023-04-23T11:48:29.261Z,16.63
2023-04-23T11:51:31.084Z,16.50
2023-04-23T11:54:33.575Z,16.22
2023-04-23T11:57:36.158Z,16.04
2023-04-23T12:00:38.138Z,15.84
2023-04-23T12:06:45.121Z,15.01
2023-04-23T12:09:49.365Z,14.17
2023-04-23T12:12:52.119Z,13.51
2023-04-23T12:15:56.711Z,13.12
2023-04-23T12:19:00.893Z,12.72
2023-04-23T12:22:03.783Z,12.45
2023-04-23T12:25:08.541Z,12.40
2023-04-23T12:28:10.481Z,12.37
2023-04-23T12:31:18.806Z,12.14
2023-04-23T12:34:22.177Z,11.92
2023-04-23T12:37:25.611Z,11.51
2023-04-23T12:40:27.582Z,11.38
2023-04-23T12:43:29.824Z,11.42
2023-04-23T12:46:31.720Z,11.77
2023-04-23T12:49:36.486Z,12.48
2023-04-23T12:52:38.584Z,13.15
2023-04-23T12:55:40.411Z,13.34
2023-04-23T12:58:42.589Z,13.55
2023-04-23T13:01:44.538Z,13.71
2023-04-23T13:04:48.253Z,13.74
2023-04-23T13:07:50.480Z,13.87
2023-04-23T13:10:52.324Z,14.01
2023-04-23T13:13:54.294Z,14.11
2023-04-23T13:16:58.060Z,14.13
2023-04-23T13:20:01.204Z,14.21
2023-04-23T13:23:03.235Z,14.36
2023-04-23T13:26:06.734Z,14.49
2023-04-23T13:29:08.379Z,14.41
2023-04-23T13:32:10.276Z,14.40
2023-04-23T13:35:14.632Z,14.36
2023-04-23T13:38:16.900Z,14.28
2023-04-23T13:41:18.568Z,14.33
2023-04-23T13:44:20.259Z,14.31
2023-04-23T13:47:22.037Z,14.05
2023-04-23T13:50:25.373Z,14.04
2023-04-23T13:53:27.494Z,14.18
2023-04-23T13:56:30.916Z,14.20
2023-04-23T13:59:32.704Z,14.26
2023-04-23T14:02:35.043Z,14.41
2023-04-23T14:05:38.915Z,14.68
2023-04-23T14:08:40.998Z,15.05
2023-04-23T14:11:42.871Z,15.20
2023-04-23T14:14:44.557Z,15.44
2023-04-23T14:17:47.350Z,15.87
2023-04-23T14:20:51.383Z,15.61
2023-04-23T14:23:55.952Z,15.35
2023-04-23T14:26:57.574Z,15.41
2023-04-23T14:30:03.137Z,16.01
2023-04-23T14:33:04.872Z,16.00
2023-04-23T14:36:08.248Z,15.93
2023-04-23T14:39:12.657Z,15.76
2023-04-23T14:42:14.382Z,15.71
2023-04-23T14:45:18.152Z,16.37
2023-04-23T14:48:19.872Z,16.85
2023-04-23T14:51:24.303Z,17.16
2023-04-23T14:54:26.127Z,17.21
2023-04-23T14:57:28.247Z,17.19
2023-04-23T15:00:30.536Z,17.16
2023-04-23T15:03:33.281Z,17.21
2023-04-23T15:06:37.214Z,16.78
2023-04-23T15:09:39.104Z,16.23
2023-04-23T15:12:48.823Z,15.96
2023-04-23T15:15:51.544Z,15.86
2023-04-23T15:18:53.185Z,15.80
2023-04-23T15:21:56.223Z,15.91
2023-04-23T15:24:57.984Z,15.86
2023-04-23T15:28:00.272Z,15.82
2023-04-23T15:31:01.934Z,15.65
2023-04-23T15:34:06.322Z,15.51
2023-04-23T15:37:09.408Z,15.25
2023-04-23T15:40:11.523Z,14.92
2023-04-23T15:43:13.615Z,14.67
2023-04-23T15:46:15.263Z,14.45
2023-04-23T15:49:16.898Z,14.32
2023-04-23T15:52:20.191Z,14.11
2023-04-23T15:55:21.862Z,14.04
2023-04-23T15:58:23.413Z,13.98
2023-04-23T16:01:27.185Z,13.89
2023-04-23T16:04:30.122Z,13.82
2023-04-23T16:07:33.208Z,13.78
2023-04-23T16:10:34.913Z,13.75
2023-04-23T16:13:46.904Z,13.77
2023-04-23T16:16:49.216Z,13.81
2023-04-23T16:19:50.930Z,13.75
2023-04-23T16:22:57.161Z,13.79
2023-04-23T16:25:58.937Z,13.80
2023-04-23T16:32:05.519Z,13.87
2023-04-23T16:35:07.938Z,13.82
2023-04-23T16:38:11.360Z,13.82
2023-04-23T16:41:15.510Z,13.83
2023-04-23T16:44:17.382Z,13.85
2023-04-23T16:47:19.058Z,13.82
2023-04-23T16:50:20.843Z,13.85
2023-04-23T16:53:23.711Z,13.86
2023-04-23T16:56:25.505Z,13.76
2023-04-23T16:59:28.560Z,13.76
2023-04-23T17:02:30.372Z,13.78
2023-04-23T17:05:34.188Z,13.82
2023-04-23T17:08:37.319Z,13.79
2023-04-23T17:11:38.915Z,13.82
2023-04-23T17:14:40.622Z,13.78
2023-04-23T17:17:42.523Z,13.77
2023-04-23T17:20:44.203Z,13.72
2023-04-23T17:23:47.392Z,13.66
2023-04-23T17:26:49.300Z,13.56
2023-04-23T17:29:50.953Z,13.54
2023-04-23T17:32:52.889Z,13.48
2023-04-23T17:35:57.535Z,13.45
2023-04-23T17:39:00.918Z,13.42
2023-04-23T17:42:03.113Z,13.41
2023-04-23T17:45:06.006Z,13.47
2023-04-23T17:48:07.780Z,13.44
2023-04-23T17:51:09.770Z,13.42
2023-04-23T17:54:12.746Z,13.35
2023-04-23T17:57:14.526Z,13.34
2023-04-23T18:00:17.513Z,13.33
2023-04-23T18:03:20.576Z,13.29
2023-04-23T18:06:22.888Z,13.32
2023-04-23T18:09:25.907Z,13.28
2023-04-23T18:12:28.818Z,13.29
2023-04-23T18:15:32.301Z,13.25
2023-04-23T18:18:33.838Z,13.27
2023-04-23T18:21:35.466Z,13.20
2023-04-23T18:24:38.534Z,13.20
2023-04-23T18:27:40.087Z,13.17
2023-04-23T18:30:41.792Z,13.21
2023-04-23T18:33:49.143Z,13.20
2023-04-23T18:36:54.405Z,13.25
2023-04-23T18:40:00.707Z,13.30
2023-04-23T18:43:02.762Z,13.32
2023-04-23T18:46:04.347Z,13.30
2023-04-23T18:49:06.898Z,13.22
2023-04-23T18:52:08.559Z,13.20
2023-04-23T18:55:11.848Z,13.11
2023-04-23T18:58:13.411Z,13.04
2023-04-23T19:01:15.356Z,13.07
2023-04-23T19:04:17.451Z,13.04
2023-04-23T19:07:19.410Z,12.99
2023-04-23T19:10:22.534Z,12.96
2023-04-23T19:13:24.627Z,12.98
2023-04-23T19:16:26.856Z,13.02
2023-04-23T19:19:31.896Z,13.07
2023-04-23T19:22:33.751Z,13.09
2023-04-23T19:25:37.141Z,12.99
2023-04-23T19:28:39.101Z,12.97
2023-04-23T19:31:41.066Z,12.92
2023-04-23T19:34:43.348Z,12.88
2023-04-23T19:37:45.270Z,12.86
2023-04-23T19:40:48.662Z,12.81
2023-04-23T19:43:51.029Z,12.77
2023-04-23T19:46:52.920Z,12.72
2023-04-23T19:49:56.708Z,12.74
2023-04-23T19:52:58.692Z,12.71
2023-04-23T19:56:01.661Z,12.67
2023-04-23T19:59:03.501Z,12.63
2023-04-23T20:02:05.138Z,12.56
2023-04-23T20:05:08.284Z,12.41
2023-04-23T20:08:15.394Z,12.26
2023-04-23T20:11:18.996Z,12.08
2023-04-23T20:14:20.793Z,11.95
2023-04-23T20:17:22.508Z,11.81
2023-04-23T20:20:25.741Z,11.68
2023-04-23T20:23:27.438Z,11.61
2023-04-23T20:26:30.543Z,11.52
2023-04-23T20:29:32.182Z,11.43
2023-04-23T20:32:34.307Z,11.32
2023-04-23T20:35:35.967Z,11.27
2023-04-23T20:38:38.060Z,11.26
2023-04-23T20:41:41.572Z,11.18
2023-04-23T20:44:45.448Z,11.03
2023-04-23T20:47:48.462Z,10.98
2023-04-23T20:50:51.468Z,10.97
2023-04-23T20:53:53.101Z,10.97
2023-04-23T20:56:56.816Z,10.94
2023-04-23T20:59:58.530Z,10.96
2023-04-23T21:03:03.596Z,10.98
2023-04-23T21:06:07.804Z,10.99
2023-04-23T21:09:11.484Z,10.97
2023-04-23T21:12:14.753Z,10.95
2023-04-23T21:15:17.238Z,10.97
2023-04-23T21:18:19.201Z,10.96
2023-04-23T21:21:26.942Z,10.95
2023-04-23T21:24:28.891Z,10.98
2023-04-23T21:27:32.175Z,10.90
2023-04-23T21:30:39.044Z,10.91
2023-04-23T21:33:40.749Z,10.92
2023-04-23T21:36:44.734Z,10.89
2023-04-23T21:39:46.346Z,10.88
2023-04-23T21:42:50.397Z,10.82
2023-04-23T21:45:52.098Z,10.81
2023-04-23T21:48:54.238Z,10.80
2023-04-23T21:51:56.462Z,10.77
2023-04-23T21:54:59.331Z,10.80
2023-04-23T21:58:16.518Z,10.78
2023-04-23T22:01:20.373Z,10.78
2023-04-23T22:04:22.703Z,10.82
2023-04-23T22:07:29.641Z,10.83
2023-04-23T22:10:32.997Z,10.86
2023-04-23T22:13:36.447Z,10.82
2023-04-23T22:16:39.685Z,10.86
2023-04-23T22:19:42.006Z,10.85
2023-04-23T22:22:43.910Z,10.83
2023-04-23T22:25:45.525Z,10.82
2023-04-23T22:28:48.670Z,10.81
2023-04-23T22:31:50.395Z,10.77
2023-04-23T22:34:52.837Z,10.75
2023-04-23T22:37:54.690Z,10.72
2023-04-23T22:40:57.520Z,10.70
2023-04-23T22:44:00.873Z,10.69
2023-04-23T22:47:02.419Z,10.68
2023-04-23T22:50:04.480Z,10.67
2023-04-23T22:53:06.829Z,10.62
2023-04-23T22:56:08.535Z,10.57
2023-04-23T22:59:13.647Z,10.55
2023-04-23T23:02:15.675Z,10.55
2023-04-23T23:05:17.421Z,10.48
2023-04-23T23:08:19.070Z,10.43
2023-04-23T23:11:21.401Z,10.41
2023-04-23T23:14:24.328Z,10.39
2023-04-23T23:17:26.457Z,10.35
2023-04-23T23:20:28.100Z,10.32
2023-04-23T23:23:29.746Z,10.32
2023-04-23T23:26:31.366Z,10.33
2023-04-23T23:29:34.288Z,10.36
2023-04-23T23:32:36.682Z,10.40
2023-04-23T23:35:38.348Z,10.43
2023-04-23T23:38:40.203Z,10.42
2023-04-23T23:41:41.759Z,10.48
2023-04-23T23:44:44.728Z,10.46
2023-04-23T23:47:46.600Z,10.44
2023-04-23T23:50:48.279Z,10.39
2023-04-23T23:53:49.937Z,10.31
2023-04-23T23:56:51.958Z,10.28
2023-04-23T23:59:54.969Z,10.18
